KCOM

Coleman Municipal Airport

Coleman, Texas, USA
METAR KCOM 231435Z AUTO 18009KT 10SM CLR 25/17 A3008 RMK AO2 T02460173
Observed Flight Rules
May-23 @ 14:35 UTC (33 minutes ago) Visual Flight Rules
Wind Visibility Clouds
180° at 9 knots 10 miles
  • Clear skies
Temperatures Readings
Current 25°C / 77°F
Dewpoint 17°C / 63°F
Humidity 61%
Altimeter 30.08" Hg
Pressure 1019 hPa
Elevation 517
METAR KCOM 231435Z AUTO 18009KT 10SM CLR 25/17 A3008 RMK AO2 T02460173
Observed Flight Rules
May-23 @ 14:35 UTC
(33 minutes ago)
VFR
Wind Visibility
180° at 9 knots 10 miles
Clouds
  • Clear skies
Temperature Dewpoint
25°C / 77°F 17°C / 63°F
Humidity Altimeter Pressure
61% 30.08" Hg 1019 hPa